Time;durP1;ratioP1;P1;durP2;ratioP2;P2;SDS_P1;SDS_P2;PMS_P1;PMS_P2;Temp;Humidity;BMP_temperature;BMP_pressure;BME280_temperature;BME280_humidity;BME280_pressure;Samples;Min_cycle;Max_cycle;Signal;HPM_P1;HPM_P2
2023/01/09 00:02:09;;;;;;;4.30;3.90;;;;;;;;;;4977956;28;20212;-76
2023/01/09 00:04:37;;;;;;;4.50;3.90;;;;;;;;;;4980134;28;20212;-76
2023/01/09 00:07:04;;;;;;;4.50;4.10;;;;;;;;;;4974462;28;20230;-78
2023/01/09 00:09:31;;;;;;;4.20;3.77;;;;;;;;;;4974156;28;20744;-78
2023/01/09 00:11:59;;;;;;;4.30;3.90;;;;;;;;;;4976985;28;20659;-74
2023/01/09 00:14:26;;;;;;;4.70;4.30;;;;;;;;;;4975254;28;20205;-79
2023/01/09 00:16:57;;;;;;;5.20;4.27;;;;;;;;;;4963852;28;20210;-76
2023/01/09 00:19:24;;;;;;;4.50;4.10;;;;;;;;;;4976162;28;20311;-78
2023/01/09 00:21:51;;;;;;;4.33;3.93;;;;;;;;;;4965349;28;20658;-78
2023/01/09 00:24:18;;;;;;;4.77;4.27;;;;;;;;;;4976673;28;20215;-78
2023/01/09 00:26:45;;;;;;;5.13;4.63;;;;;;;;;;4963123;28;20605;-78
2023/01/09 00:29:13;;;;;;;4.47;4.07;;;;;;;;;;4977967;28;20235;-76
2023/01/09 00:31:41;;;;;;;6.03;4.73;;;;;;;;;;4976186;28;20840;-76
2023/01/09 00:34:11;;;;;;;5.27;4.77;;;;;;;;;;4972425;28;20685;-77
2023/01/09 00:36:38;;;;;;;5.17;4.67;;;;;;;;;;4978781;28;20204;-76
2023/01/09 00:39:06;;;;;;;4.80;4.40;;;;;;;;;;4985574;28;20251;-73
2023/01/09 00:41:46;;;;;;;6.10;4.60;;;;;;;;;;4988727;28;20295;-77
2023/01/09 00:44:16;;;;;;;5.23;4.37;;;;;;;;;;4979867;28;20292;-78
2023/01/09 00:46:50;;;;;;;4.57;4.17;;;;;;;;;;4994401;28;20220;-76
2023/01/09 00:49:18;;;;;;;4.80;4.20;;;;;;;;;;4975547;28;20232;-77
2023/01/09 00:51:45;;;;;;;4.23;3.83;;;;;;;;;;4983160;28;20746;-79
2023/01/09 00:54:14;;;;;;;4.57;4.17;;;;;;;;;;4977473;28;20214;-80
2023/01/09 00:56:41;;;;;;;4.77;4.37;;;;;;;;;;4981421;28;20217;-77
2023/01/09 00:59:09;;;;;;;4.57;3.93;;;;;;;;;;4979977;28;20250;-76
2023/01/09 01:01:36;;;;;;;4.60;4.20;;;;;;;;;;4985185;28;20769;-75
2023/01/09 01:07:37;;;;;;;4.70;4.30;;;;;;;;;;4978910;28;20231;-77
2023/01/09 01:09:36;;;;;;;4.77;4.37;;;;;;;;;;4980862;28;20229;-76
2023/01/09 01:12:05;;;;;;;4.97;4.57;;;;;;;;;;4988101;28;20207;-75
2023/01/09 01:14:34;;;;;;;4.80;4.40;;;;;;;;;;4985029;28;20760;-78
2023/01/09 01:17:02;;;;;;;4.87;4.47;;;;;;;;;;4982392;28;20236;-79
2023/01/09 01:19:29;;;;;;;5.27;4.83;;;;;;;;;;4976822;28;20303;-76
2023/01/09 01:21:56;;;;;;;5.40;4.90;;;;;;;;;;4975642;28;20216;-76
2023/01/09 01:24:24;;;;;;;5.07;4.67;;;;;;;;;;4978003;28;20299;-76
2023/01/09 01:26:51;;;;;;;5.70;5.20;;;;;;;;;;4982671;28;20216;-76
2023/01/09 01:29:18;;;;;;;4.93;4.43;;;;;;;;;;4979544;28;20279;-78
2023/01/09 01:31:46;;;;;;;5.30;4.80;;;;;;;;;;4983689;28;20295;-76
2023/01/09 01:34:13;;;;;;;5.77;5.27;;;;;;;;;;4981327;28;20201;-76
2023/01/09 01:36:41;;;;;;;5.57;5.07;;;;;;;;;;4983521;28;20204;-76
2023/01/09 01:39:08;;;;;;;6.67;5.20;;;;;;;;;;4986795;28;20641;-78
2023/01/09 01:41:36;;;;;;;7.27;5.57;;;;;;;;;;4984824;28;20215;-77
2023/01/09 01:44:05;;;;;;;5.87;5.27;;;;;;;;;;4982903;28;20311;-77
2023/01/09 01:46:33;;;;;;;5.80;5.20;;;;;;;;;;4980533;28;20285;-77
2023/01/09 01:49:06;;;;;;;6.37;5.67;;;;;;;;;;4981531;28;20229;-75
2023/01/09 01:51:35;;;;;;;6.33;5.73;;;;;;;;;;4975929;28;20325;-77
2023/01/09 01:54:06;;;;;;;5.27;4.77;;;;;;;;;;4980744;28;20219;-75
2023/01/09 01:56:37;;;;;;;5.40;4.90;;;;;;;;;;4979979;28;20212;-77
2023/01/09 01:59:04;;;;;;;5.93;5.40;;;;;;;;;;4978117;28;20243;-75
2023/01/09 02:01:32;;;;;;;5.50;5.00;;;;;;;;;;4980329;28;20215;-77
2023/01/09 02:04:01;;;;;;;5.80;5.30;;;;;;;;;;4987713;28;20199;-76
2023/01/09 02:06:30;;;;;;;5.77;5.27;;;;;;;;;;4982109;28;20238;-78
2023/01/09 02:08:57;;;;;;;5.43;4.93;;;;;;;;;;4983471;28;20230;-77
2023/01/09 02:11:24;;;;;;;5.50;5.00;;;;;;;;;;4981605;28;20211;-78
2023/01/09 02:13:51;;;;;;;5.20;4.70;;;;;;;;;;4981111;28;20745;-79
2023/01/09 02:16:28;;;;;;;5.97;5.47;;;;;;;;;;4982254;28;20212;-79
2023/01/09 02:19:12;;;;;;;5.47;4.97;;;;;;;;;;4977950;28;20238;-77
2023/01/09 02:21:49;;;;;;;6.07;5.47;;;;;;;;;;4981277;28;20219;-76
2023/01/09 02:24:27;;;;;;;6.10;5.50;;;;;;;;;;4981801;28;20211;-76
2023/01/09 02:27:01;;;;;;;6.13;5.53;;;;;;;;;;4981443;28;20234;-79
2023/01/09 02:29:43;;;;;;;6.20;5.60;;;;;;;;;;4981146;28;20251;-76
2023/01/09 02:32:32;;;;;;;5.83;5.30;;;;;;;;;;4980834;28;20295;-78
2023/01/09 02:35:18;;;;;;;5.90;5.40;;;;;;;;;;4982030;28;20746;-78
2023/01/09 02:38:12;;;;;;;6.23;5.63;;;;;;;;;;4979588;28;20220;-75
2023/01/09 02:40:43;;;;;;;6.00;5.40;;;;;;;;;;4953707;28;20295;-78
2023/01/09 02:43:12;;;;;;;5.50;5.00;;;;;;;;;;4983951;28;20215;-77
2023/01/09 02:45:39;;;;;;;5.07;4.67;;;;;;;;;;4978025;28;20215;-78
2023/01/09 02:48:12;;;;;;;4.97;4.57;;;;;;;;;;4980804;28;20251;-77
2023/01/09 02:50:47;;;;;;;6.40;4.60;;;;;;;;;;4980406;28;21264;-77
2023/01/09 02:53:17;;;;;;;4.77;4.37;;;;;;;;;;4982144;28;20200;-77
2023/01/09 02:56:03;;;;;;;4.43;4.03;;;;;;;;;;4982642;28;20209;-76
2023/01/09 02:58:32;;;;;;;4.63;4.23;;;;;;;;;;4984263;28;20229;-78
2023/01/09 03:01:19;;;;;;;4.80;4.00;;;;;;;;;;4976776;28;20228;-78
2023/01/09 03:03:47;;;;;;;4.07;3.67;;;;;;;;;;4979982;28;20286;-76
2023/01/09 03:06:30;;;;;;;4.50;4.10;;;;;;;;;;4979016;28;20693;-77
2023/01/09 03:09:00;;;;;;;4.37;4.03;;;;;;;;;;4979111;28;20608;-77
2023/01/09 03:11:30;;;;;;;3.93;3.63;;;;;;;;;;4985683;28;20210;-76
2023/01/09 03:14:01;;;;;;;3.70;3.40;;;;;;;;;;4989840;28;20564;-76
2023/01/09 03:16:32;;;;;;;3.83;3.53;;;;;;;;;;4987688;28;20287;-79
2023/01/09 03:19:00;;;;;;;7.20;5.50;;;;;;;;;;4987264;28;20709;-78
2023/01/09 03:21:27;;;;;;;2.50;2.30;;;;;;;;;;4976545;28;20266;-77
2023/01/09 03:23:56;;;;;;;1.57;1.47;;;;;;;;;;4978302;28;20212;-79
2023/01/09 03:26:23;;;;;;;1.30;1.30;;;;;;;;;;4977216;28;20238;-75
2023/01/09 03:28:51;;;;;;;3.03;2.27;;;;;;;;;;4977216;28;20228;-75
2023/01/09 03:31:18;;;;;;;2.30;2.10;;;;;;;;;;4979144;28;20225;-75
2023/01/09 03:33:45;;;;;;;1.67;1.57;;;;;;;;;;4983128;28;20203;-76
2023/01/09 03:36:13;;;;;;;2.20;1.83;;;;;;;;;;4980820;28;20307;-76
2023/01/09 03:38:40;;;;;;;1.50;1.40;;;;;;;;;;4978961;28;20260;-76
2023/01/09 03:41:10;;;;;;;2.77;1.80;;;;;;;;;;4978732;28;20227;-76
2023/01/09 03:43:37;;;;;;;1.43;1.33;;;;;;;;;;4979025;28;20244;-75
2023/01/09 03:46:04;;;;;;;1.40;1.30;;;;;;;;;;4977013;28;20196;-76
2023/01/09 03:48:32;;;;;;;1.10;1.10;;;;;;;;;;4980859;28;20220;-77
2023/01/09 03:51:00;;;;;;;1.10;1.10;;;;;;;;;;4977085;28;20232;-78
2023/01/09 03:53:27;;;;;;;1.07;0.80;;;;;;;;;;4977166;28;20786;-78
2023/01/09 03:55:55;;;;;;;1.00;1.00;;;;;;;;;;4979591;28;20283;-77
2023/01/09 03:58:24;;;;;;;1.13;1.00;;;;;;;;;;4980846;28;20318;-76
2023/01/09 04:00:56;;;;;;;1.10;1.10;;;;;;;;;;4982637;28;20209;-74
2023/01/09 04:03:23;;;;;;;0.90;0.90;;;;;;;;;;4981905;28;20308;-76
2023/01/09 04:05:51;;;;;;;0.90;0.90;;;;;;;;;;4976479;28;20983;-76
2023/01/09 04:08:19;;;;;;;0.90;0.90;;;;;;;;;;4984087;28;20255;-78
2023/01/09 04:10:47;;;;;;;1.10;1.10;;;;;;;;;;4976493;28;20239;-76
2023/01/09 04:13:14;;;;;;;0.80;0.80;;;;;;;;;;4977464;28;20200;-77
2023/01/09 04:15:42;;;;;;;1.17;1.17;;;;;;;;;;4974612;28;20661;-77
2023/01/09 04:18:09;;;;;;;0.90;0.90;;;;;;;;;;4989217;28;20232;-77
2023/01/09 04:20:36;;;;;;;0.70;0.70;;;;;;;;;;4973270;28;20700;-77
2023/01/09 04:23:03;;;;;;;0.90;0.90;;;;;;;;;;4973848;28;20203;-76
2023/01/09 04:25:33;;;;;;;0.87;0.87;;;;;;;;;;4981316;28;20254;-78
2023/01/09 04:28:00;;;;;;;0.83;0.83;;;;;;;;;;4973825;28;20240;-78
2023/01/09 04:30:28;;;;;;;1.70;0.83;;;;;;;;;;4967252;28;20862;-78
2023/01/09 04:32:55;;;;;;;0.90;0.90;;;;;;;;;;4971209;28;20311;-79
2023/01/09 04:35:22;;;;;;;1.03;0.90;;;;;;;;;;4970530;28;20223;-78
2023/01/09 04:37:49;;;;;;;0.80;0.80;;;;;;;;;;4971117;28;20223;-79
2023/01/09 04:40:17;;;;;;;0.90;0.90;;;;;;;;;;4997252;28;20303;-78
2023/01/09 04:42:45;;;;;;;0.80;0.80;;;;;;;;;;4966839;28;20223;-77
2023/01/09 04:45:14;;;;;;;0.80;0.80;;;;;;;;;;4976575;28;20660;-77
2023/01/09 04:47:41;;;;;;;0.80;0.80;;;;;;;;;;4971095;28;20267;-75
2023/01/09 04:50:09;;;;;;;1.30;1.20;;;;;;;;;;4965372;28;20203;-77
2023/01/09 04:52:37;;;;;;;1.07;1.07;;;;;;;;;;4962568;28;20211;-77
2023/01/09 04:55:06;;;;;;;0.90;0.90;;;;;;;;;;4971222;28;20662;-78
2023/01/09 04:57:34;;;;;;;1.30;1.30;;;;;;;;;;4965937;28;20339;-77
2023/01/09 05:00:01;;;;;;;1.00;1.00;;;;;;;;;;4963208;28;20599;-78
2023/01/09 05:02:29;;;;;;;1.87;1.77;;;;;;;;;;4960957;28;21289;-79
2023/01/09 05:04:56;;;;;;;2.37;2.17;;;;;;;;;;4967413;28;20212;-78
2023/01/09 05:07:23;;;;;;;1.63;1.53;;;;;;;;;;4963825;28;20235;-80
2023/01/09 05:09:50;;;;;;;2.80;2.60;;;;;;;;;;4967420;28;20248;-76
2023/01/09 05:12:18;;;;;;;1.47;1.47;;;;;;;;;;4985228;28;20221;-77
2023/01/09 05:14:45;;;;;;;1.53;1.43;;;;;;;;;;4990817;28;20208;-76
2023/01/09 05:17:12;;;;;;;0.90;0.90;;;;;;;;;;4990754;28;20295;-78
2023/01/09 05:19:39;;;;;;;0.80;0.80;;;;;;;;;;4980005;28;20236;-78
2023/01/09 05:22:06;;;;;;;0.80;0.80;;;;;;;;;;4963604;28;20209;-78
2023/01/09 05:24:34;;;;;;;0.90;0.90;;;;;;;;;;4975017;28;20711;-77
2023/01/09 05:27:01;;;;;;;0.90;0.90;;;;;;;;;;4960970;28;20237;-78
2023/01/09 05:29:28;;;;;;;0.80;0.80;;;;;;;;;;4978969;28;20231;-77
2023/01/09 05:31:56;;;;;;;0.80;0.80;;;;;;;;;;4976558;28;20204;-78
2023/01/09 05:34:24;;;;;;;2.10;0.83;;;;;;;;;;4977265;28;20236;-78
2023/01/09 05:36:51;;;;;;;0.90;0.90;;;;;;;;;;4962215;28;20299;-76
2023/01/09 05:39:18;;;;;;;1.00;1.00;;;;;;;;;;4965614;28;20239;-78
2023/01/09 05:41:45;;;;;;;0.90;0.90;;;;;;;;;;4968201;28;20211;-79
2023/01/09 05:44:13;;;;;;;0.80;0.80;;;;;;;;;;4963339;28;20239;-80
2023/01/09 05:46:40;;;;;;;0.97;0.90;;;;;;;;;;4970741;28;20602;-78
2023/01/09 05:49:07;;;;;;;1.00;1.00;;;;;;;;;;4963654;28;20794;-79
2023/01/09 05:51:34;;;;;;;0.90;0.90;;;;;;;;;;4964208;28;20205;-77
2023/01/09 05:54:02;;;;;;;1.30;1.00;;;;;;;;;;4960547;28;20208;-76
2023/01/09 05:56:30;;;;;;;1.63;0.90;;;;;;;;;;4961725;28;20201;-78
2023/01/09 05:58:57;;;;;;;1.40;1.03;;;;;;;;;;4952964;28;20318;-77
2023/01/09 06:01:24;;;;;;;4.73;1.00;;;;;;;;;;4966803;28;20208;-77
2023/01/09 06:03:51;;;;;;;1.07;0.97;;;;;;;;;;4957115;28;20327;-78
2023/01/09 06:06:18;;;;;;;1.00;1.00;;;;;;;;;;4963847;28;20741;-75
2023/01/09 06:08:46;;;;;;;0.90;0.90;;;;;;;;;;4959732;28;20235;-80
2023/01/09 06:11:13;;;;;;;1.20;1.20;;;;;;;;;;4975183;28;20713;-73
2023/01/09 06:13:40;;;;;;;2.37;1.97;;;;;;;;;;4960569;28;20218;-77
2023/01/09 06:16:07;;;;;;;23.20;11.40;;;;;;;;;;4967910;28;20832;-78
2023/01/09 06:18:35;;;;;;;59.93;25.23;;;;;;;;;;4969749;28;20252;-76
2023/01/09 06:21:02;;;;;;;6.70;3.13;;;;;;;;;;4968933;28;20208;-78
2023/01/09 06:23:29;;;;;;;10.00;5.43;;;;;;;;;;4970625;28;20212;-81
2023/01/09 06:25:57;;;;;;;1.70;1.53;;;;;;;;;;4966498;28;20219;-79
2023/01/09 06:28:24;;;;;;;2.80;1.57;;;;;;;;;;4961326;28;20618;-77
2023/01/09 06:30:51;;;;;;;3.73;1.93;;;;;;;;;;4965326;28;20211;-76
2023/01/09 06:33:19;;;;;;;1.70;1.60;;;;;;;;;;4967571;28;20207;-77
2023/01/09 06:35:46;;;;;;;2.30;1.97;;;;;;;;;;4978191;28;20214;-78
2023/01/09 06:38:13;;;;;;;1.30;1.20;;;;;;;;;;4964247;28;20323;-79
2023/01/09 06:40:41;;;;;;;2.23;1.00;;;;;;;;;;4954503;28;20644;-79
2023/01/09 06:43:08;;;;;;;2.10;0.90;;;;;;;;;;4965681;28;20213;-79
2023/01/09 06:45:35;;;;;;;1.23;1.10;;;;;;;;;;4967475;28;20205;-77
2023/01/09 06:48:02;;;;;;;1.30;1.20;;;;;;;;;;4955857;28;20235;-79
2023/01/09 06:50:29;;;;;;;1.30;1.20;;;;;;;;;;4963364;28;20208;-79
2023/01/09 06:52:57;;;;;;;2.93;1.00;;;;;;;;;;4960973;28;20283;-80
2023/01/09 06:55:25;;;;;;;2.73;1.40;;;;;;;;;;4968822;28;27938;-77
2023/01/09 06:57:52;;;;;;;2.43;1.30;;;;;;;;;;4958239;28;20257;-80
2023/01/09 07:00:20;;;;;;;4.13;1.97;;;;;;;;;;4968839;28;20231;-79
2023/01/09 07:02:47;;;;;;;1.30;1.30;;;;;;;;;;4967712;28;20243;-79
2023/01/09 07:05:14;;;;;;;2.17;1.30;;;;;;;;;;4967020;28;20263;-78
2023/01/09 07:07:42;;;;;;;1.80;1.33;;;;;;;;;;4959945;28;23149;-80
2023/01/09 07:10:10;;;;;;;2.50;1.30;;;;;;;;;;4961994;28;20673;-78
2023/01/09 07:12:37;;;;;;;3.27;1.20;;;;;;;;;;4971855;28;20205;-76
2023/01/09 07:15:04;;;;;;;1.77;1.30;;;;;;;;;;4987088;28;20228;-77
2023/01/09 07:17:31;;;;;;;1.80;1.30;;;;;;;;;;4979988;28;20215;-75
2023/01/09 07:19:59;;;;;;;1.17;1.10;;;;;;;;;;4983542;28;20271;-79
2023/01/09 07:22:26;;;;;;;2.03;1.20;;;;;;;;;;4958275;28;20204;-79
2023/01/09 07:24:54;;;;;;;5.27;1.97;;;;;;;;;;4977834;28;20267;-77
2023/01/09 07:27:21;;;;;;;2.23;1.67;;;;;;;;;;4989974;28;20238;-79
2023/01/09 07:29:50;;;;;;;1.20;1.20;;;;;;;;;;4985205;28;20224;-78
2023/01/09 07:32:17;;;;;;;1.70;1.60;;;;;;;;;;4983916;28;20200;-79
2023/01/09 07:34:44;;;;;;;3.23;1.17;;;;;;;;;;4984148;28;20207;-79
2023/01/09 07:37:11;;;;;;;3.30;1.37;;;;;;;;;;4983026;28;20204;-77
2023/01/09 07:39:39;;;;;;;1.80;1.70;;;;;;;;;;4965330;28;20235;-78
2023/01/09 07:42:06;;;;;;;2.23;2.10;;;;;;;;;;4961283;28;20215;-80
2023/01/09 07:44:33;;;;;;;3.50;2.00;;;;;;;;;;4963263;28;20335;-80
2023/01/09 07:47:00;;;;;;;1.40;1.30;;;;;;;;;;4959903;28;20212;-79
2023/01/09 07:49:27;;;;;;;4.03;1.90;;;;;;;;;;4960245;28;20319;-78
2023/01/09 07:51:55;;;;;;;2.03;1.33;;;;;;;;;;4964926;28;20200;-78
2023/01/09 07:54:22;;;;;;;1.10;1.10;;;;;;;;;;4961826;28;20208;-78
2023/01/09 07:56:49;;;;;;;2.00;1.47;;;;;;;;;;4963220;28;20219;-78
2023/01/09 07:59:16;;;;;;;2.00;1.10;;;;;;;;;;4966447;28;20239;-78
2023/01/09 08:01:44;;;;;;;1.13;1.03;;;;;;;;;;4951767;28;20223;-79
2023/01/09 08:04:12;;;;;;;1.80;1.60;;;;;;;;;;4958664;28;20884;-78
2023/01/09 08:06:39;;;;;;;2.77;1.30;;;;;;;;;;4959900;28;20717;-77
2023/01/09 08:09:06;;;;;;;1.60;1.10;;;;;;;;;;4982040;28;20743;-78
2023/01/09 08:11:33;;;;;;;1.53;1.20;;;;;;;;;;4981866;28;20200;-79
2023/01/09 08:14:02;;;;;;;3.30;1.20;;;;;;;;;;4994263;28;20204;-77
2023/01/09 08:16:29;;;;;;;2.30;1.30;;;;;;;;;;4973043;28;20226;-77
2023/01/09 08:18:56;;;;;;;1.53;1.33;;;;;;;;;;4957669;28;20232;-79
2023/01/09 08:21:23;;;;;;;2.90;1.30;;;;;;;;;;4961847;28;20291;-79
2023/01/09 08:23:51;;;;;;;2.60;1.13;;;;;;;;;;4961381;28;20250;-78
2023/01/09 08:26:18;;;;;;;1.43;1.27;;;;;;;;;;4966088;28;20645;-78
2023/01/09 08:28:45;;;;;;;2.87;1.37;;;;;;;;;;4965717;28;20240;-80
2023/01/09 08:31:13;;;;;;;3.17;1.37;;;;;;;;;;4965649;28;20202;-79
2023/01/09 08:33:40;;;;;;;1.20;1.00;;;;;;;;;;4966862;28;20618;-80
2023/01/09 08:36:08;;;;;;;3.33;1.20;;;;;;;;;;4960526;28;20714;-77
2023/01/09 08:38:35;;;;;;;1.40;1.20;;;;;;;;;;4981705;28;20232;-79
2023/01/09 08:47:04;;;;;;;1.30;1.10;;;;;;;;;;4968110;28;20620;-76
2023/01/09 08:49:21;;;;;;;2.20;1.50;;;;;;;;;;4978478;28;20239;-78
2023/01/09 08:51:48;;;;;;;2.60;2.40;;;;;;;;;;4980020;28;20211;-78
2023/01/09 08:54:16;;;;;;;4.43;3.40;;;;;;;;;;4978575;28;20527;-76
2023/01/09 08:56:43;;;;;;;5.50;3.00;;;;;;;;;;4981981;28;20200;-77
2023/01/09 08:59:10;;;;;;;2.60;2.40;;;;;;;;;;4980480;28;20232;-76
2023/01/09 09:01:37;;;;;;;1.87;1.77;;;;;;;;;;4975623;28;20684;-77
2023/01/09 09:04:05;;;;;;;3.40;1.40;;;;;;;;;;4961429;28;20208;-79
2023/01/09 09:06:33;;;;;;;3.30;1.53;;;;;;;;;;4962401;28;20217;-75
2023/01/09 09:09:05;;;;;;;2.73;1.50;;;;;;;;;;4970929;28;20255;-78
2023/01/09 09:11:33;;;;;;;4.20;1.40;;;;;;;;;;4963656;28;20685;-77
2023/01/09 09:15:11;;;;;;;2.07;1.40;;;;;;;;;;4987362;28;20279;-78
2023/01/09 09:16:51;;;;;;;2.57;1.47;;;;;;;;;;4985593;28;20197;-78
2023/01/09 09:19:18;;;;;;;2.70;1.50;;;;;;;;;;4988750;28;20226;-77
2023/01/09 09:21:45;;;;;;;3.07;1.57;;;;;;;;;;4977621;28;20236;-77
2023/01/09 09:24:14;;;;;;;3.70;1.40;;;;;;;;;;4975659;28;20292;-79
2023/01/09 09:26:41;;;;;;;2.97;1.70;;;;;;;;;;4986029;28;20305;-75
2023/01/09 09:29:10;;;;;;;1.73;1.30;;;;;;;;;;4988800;28;20323;-77
2023/01/09 09:31:38;;;;;;;5.37;1.70;;;;;;;;;;4976052;28;20204;-78
2023/01/09 09:34:06;;;;;;;2.37;1.60;;;;;;;;;;4997654;28;20264;-77
2023/01/09 09:36:33;;;;;;;6.10;1.77;;;;;;;;;;4960831;28;20215;-77
2023/01/09 09:39:01;;;;;;;3.73;1.50;;;;;;;;;;4964399;28;20243;-79
2023/01/09 09:44:48;;;;;;;5.53;1.40;;;;;;;;;;4958897;28;24102;-78
2023/01/09 09:47:32;;;;;;;5.03;1.43;;;;;;;;;;4970951;28;20208;-77
2023/01/09 09:49:59;;;;;;;1.80;1.50;;;;;;;;;;4969231;28;20204;-77
2023/01/09 09:52:49;;;;;;;2.90;1.87;;;;;;;;;;4964009;28;20232;-78
2023/01/09 09:55:31;;;;;;;5.03;1.40;;;;;;;;;;4968265;28;20263;-78
2023/01/09 09:58:00;;;;;;;2.57;1.50;;;;;;;;;;4964556;28;20854;-78
2023/01/09 10:00:28;;;;;;;3.30;1.60;;;;;;;;;;4963661;28;20836;-78
2023/01/09 10:03:02;;;;;;;3.87;1.63;;;;;;;;;;4965755;28;20215;-77
2023/01/09 10:05:55;;;;;;;3.27;1.50;;;;;;;;;;4967466;28;20209;-76
2023/01/09 10:08:45;;;;;;;3.70;1.70;;;;;;;;;;4965442;28;20308;-77
2023/01/09 10:11:15;;;;;;;3.83;1.80;;;;;;;;;;4964112;28;20211;-78
2023/01/09 10:16:50;;;;;;;1.30;1.20;;;;;;;;;;4966888;28;20323;-78
2023/01/09 10:19:36;;;;;;;1.30;1.17;;;;;;;;;;4985413;28;20713;-80
2023/01/09 10:22:22;;;;;;;1.63;1.53;;;;;;;;;;4971198;28;20220;-78
2023/01/09 10:24:54;;;;;;;4.30;1.77;;;;;;;;;;4973525;28;20216;-75
2023/01/09 10:27:35;;;;;;;3.43;1.50;;;;;;;;;;4965468;28;21037;-79
2023/01/09 10:30:02;;;;;;;2.90;1.30;;;;;;;;;;4965762;28;20234;-77
2023/01/09 10:32:32;;;;;;;2.53;1.30;;;;;;;;;;4957974;28;20284;-77
2023/01/09 10:35:12;;;;;;;3.13;1.43;;;;;;;;;;4968305;28;20215;-79
2023/01/09 10:37:44;;;;;;;3.10;1.40;;;;;;;;;;4971452;28;20204;-76
2023/01/09 10:40:24;;;;;;;1.60;1.30;;;;;;;;;;4954816;28;20208;-76
2023/01/09 10:42:58;;;;;;;4.37;1.50;;;;;;;;;;4961894;28;20212;-78
2023/01/09 10:45:31;;;;;;;3.37;1.50;;;;;;;;;;4967254;28;20673;-77
2023/01/09 10:48:04;;;;;;;7.37;1.50;;;;;;;;;;4966679;28;20227;-77
2023/01/09 10:50:37;;;;;;;7.50;1.50;;;;;;;;;;4949337;28;20691;-78
2023/01/09 10:53:20;;;;;;;2.00;1.63;;;;;;;;;;4960874;28;20208;-77
2023/01/09 10:55:48;;;;;;;5.93;2.10;;;;;;;;;;4964131;28;20675;-77
2023/01/09 10:58:19;;;;;;;2.33;1.43;;;;;;;;;;4954378;28;20651;-78
2023/01/09 11:00:48;;;;;;;4.97;2.07;;;;;;;;;;4958201;28;20212;-78
2023/01/09 11:03:20;;;;;;;4.23;1.43;;;;;;;;;;4966339;28;20572;-78
2023/01/09 11:05:50;;;;;;;5.60;1.70;;;;;;;;;;4970655;28;20217;-78
2023/01/09 11:08:40;;;;;;;2.60;1.40;;;;;;;;;;4963764;28;20261;-78
2023/01/09 11:11:08;;;;;;;8.23;2.60;;;;;;;;;;4967951;28;20200;-78
2023/01/09 11:13:37;;;;;;;3.87;2.10;;;;;;;;;;4978902;28;20209;-77
2023/01/09 11:16:10;;;;;;;4.33;2.13;;;;;;;;;;4981461;28;20227;-76
2023/01/09 11:18:39;;;;;;;5.40;1.47;;;;;;;;;;4975209;28;20247;-78
2023/01/09 11:21:34;;;;;;;5.97;1.53;;;;;;;;;;4973669;28;20570;-76
2023/01/09 11:24:25;;;;;;;4.00;1.73;;;;;;;;;;4966016;28;20211;-75
2023/01/09 11:27:12;;;;;;;1.50;1.40;;;;;;;;;;4967045;28;20302;-76
2023/01/09 11:29:41;;;;;;;5.27;1.70;;;;;;;;;;4962586;28;20740;-78
2023/01/09 11:32:21;;;;;;;5.30;2.00;;;;;;;;;;4959237;28;20836;-75
2023/01/09 11:34:49;;;;;;;4.03;1.73;;;;;;;;;;4965027;28;20212;-78
2023/01/09 11:37:22;;;;;;;6.03;2.00;;;;;;;;;;4968216;28;20211;-77
2023/01/09 11:39:49;;;;;;;3.93;1.80;;;;;;;;;;4965755;28;20224;-77
2023/01/09 11:42:49;;;;;;;10.93;7.13;;;;;;;;;;4972741;28;20255;-76
2023/01/09 11:45:17;;;;;;;2.97;1.73;;;;;;;;;;4970569;28;20204;-77
2023/01/09 11:47:45;;;;;;;7.17;1.97;;;;;;;;;;4966243;28;20212;-77
2023/01/09 11:50:12;;;;;;;2.23;1.63;;;;;;;;;;4966898;28;20235;-79
2023/01/09 11:52:39;;;;;;;5.13;1.80;;;;;;;;;;4966069;28;20327;-79
2023/01/09 11:55:10;;;;;;;2.93;1.73;;;;;;;;;;4964185;28;20208;-79
2023/01/09 11:57:38;;;;;;;5.90;2.00;;;;;;;;;;4969731;28;20211;-76
2023/01/09 12:00:23;;;;;;;4.60;1.77;;;;;;;;;;4984546;28;20630;-76
2023/01/09 12:02:57;;;;;;;2.67;1.80;;;;;;;;;;4974225;28;20813;-77
2023/01/09 12:05:27;;;;;;;6.20;2.00;;;;;;;;;;4970541;28;20211;-78
2023/01/09 12:08:05;;;;;;;6.40;2.30;;;;;;;;;;4972969;28;20224;-78
2023/01/09 12:10:53;;;;;;;4.53;1.30;;;;;;;;;;4969501;28;20196;-78
2023/01/09 12:13:20;;;;;;;3.20;1.50;;;;;;;;;;4959556;28;20200;-77
2023/01/09 12:15:56;;;;;;;2.83;1.50;;;;;;;;;;4972294;28;20200;-79
2023/01/09 12:18:42;;;;;;;4.00;1.73;;;;;;;;;;4969627;28;20228;-78
2023/01/09 12:21:13;;;;;;;2.13;1.60;;;;;;;;;;4968895;28;21530;-79
2023/01/09 12:23:59;;;;;;;3.07;1.57;;;;;;;;;;4961763;28;20634;-77
2023/01/09 12:26:32;;;;;;;3.10;1.60;;;;;;;;;;4968853;28;20232;-76
2023/01/09 12:29:06;;;;;;;2.40;1.20;;;;;;;;;;4962225;28;20240;-77
2023/01/09 12:31:36;;;;;;;4.50;1.70;;;;;;;;;;4975342;28;20200;-76
2023/01/09 12:34:22;;;;;;;6.40;1.63;;;;;;;;;;4971815;28;20385;-78
2023/01/09 12:37:08;;;;;;;3.70;1.60;;;;;;;;;;4974570;28;20203;-78
2023/01/09 12:39:43;;;;;;;3.77;1.47;;;;;;;;;;4972195;28;20232;-79
2023/01/09 12:42:11;;;;;;;3.83;1.80;;;;;;;;;;4972184;28;20204;-77
2023/01/09 12:44:41;;;;;;;5.33;2.10;;;;;;;;;;4963331;28;20234;-77
2023/01/09 12:47:18;;;;;;;4.37;1.40;;;;;;;;;;4970334;28;20208;-77
2023/01/09 12:50:03;;;;;;;3.73;1.40;;;;;;;;;;4961305;28;20970;-80
2023/01/09 12:52:46;;;;;;;3.43;1.60;;;;;;;;;;4978661;28;20200;-78
2023/01/09 12:55:24;;;;;;;3.07;1.40;;;;;;;;;;4970223;28;20961;-78
2023/01/09 12:57:54;;;;;;;1.97;1.67;;;;;;;;;;4973170;28;21064;-80
2023/01/09 13:00:22;;;;;;;7.23;1.70;;;;;;;;;;4967366;28;20497;-78
2023/01/09 13:02:56;;;;;;;5.20;2.13;;;;;;;;;;4972096;28;20211;-79
2023/01/09 13:05:42;;;;;;;4.10;1.40;;;;;;;;;;4978782;28;20776;-77
2023/01/09 13:08:29;;;;;;;5.47;1.57;;;;;;;;;;4974578;28;20295;-77
2023/01/09 13:11:08;;;;;;;4.37;1.73;;;;;;;;;;4979749;28;20214;-78
2023/01/09 13:13:47;;;;;;;6.00;1.50;;;;;;;;;;4984471;28;20213;-77
2023/01/09 13:16:17;;;;;;;3.40;1.50;;;;;;;;;;4983841;28;20215;-78
2023/01/09 13:18:49;;;;;;;2.80;1.70;;;;;;;;;;4977962;28;20224;-78
2023/01/09 13:21:16;;;;;;;3.50;1.57;;;;;;;;;;4976422;28;20742;-78
2023/01/09 13:23:43;;;;;;;3.30;1.60;;;;;;;;;;4958701;28;20205;-79
2023/01/09 13:26:14;;;;;;;4.07;1.50;;;;;;;;;;4973437;28;20299;-77
2023/01/09 13:28:45;;;;;;;3.23;1.67;;;;;;;;;;4977800;28;20220;-75
2023/01/09 13:31:35;;;;;;;1.67;1.50;;;;;;;;;;4997909;28;20243;-75
2023/01/09 13:34:03;;;;;;;1.43;1.30;;;;;;;;;;4987451;28;20201;-78
2023/01/09 13:36:38;;;;;;;2.20;1.20;;;;;;;;;;4980852;28;20273;-78
2023/01/09 13:39:06;;;;;;;2.20;1.50;;;;;;;;;;4970991;28;20228;-79
2023/01/09 13:44:32;;;;;;;1.40;1.30;;;;;;;;;;4973364;28;20215;-79
2023/01/09 13:47:02;;;;;;;1.57;1.30;;;;;;;;;;4976678;28;20300;-78
2023/01/09 13:49:30;;;;;;;1.97;1.27;;;;;;;;;;4973454;28;20236;-77
2023/01/09 13:51:59;;;;;;;2.10;1.10;;;;;;;;;;4971449;28;20215;-80
2023/01/09 13:54:45;;;;;;;1.30;1.20;;;;;;;;;;4968724;28;20215;-75
2023/01/09 13:57:15;;;;;;;1.47;1.13;;;;;;;;;;4970648;28;20898;-77
2023/01/09 13:59:43;;;;;;;1.90;1.40;;;;;;;;;;4969599;28;20224;-78
2023/01/09 14:02:29;;;;;;;1.90;1.50;;;;;;;;;;4972657;28;21821;-78
2023/01/09 14:04:57;;;;;;;2.70;1.40;;;;;;;;;;4971163;28;20204;-80
2023/01/09 14:07:28;;;;;;;2.97;1.23;;;;;;;;;;4973970;28;20216;-77
2023/01/09 14:10:07;;;;;;;1.97;1.20;;;;;;;;;;4963966;28;20240;-78
2023/01/09 14:12:41;;;;;;;1.33;1.23;;;;;;;;;;4959273;28;20223;-79
2023/01/09 14:15:24;;;;;;;2.93;1.30;;;;;;;;;;4969107;28;20204;-78
2023/01/09 14:18:01;;;;;;;3.37;1.40;;;;;;;;;;4971038;28;20224;-79
2023/01/09 14:20:38;;;;;;;3.83;3.10;;;;;;;;;;4964667;28;20414;-78
2023/01/09 14:23:06;;;;;;;6.10;4.27;;;;;;;;;;4969927;28;20211;-79
2023/01/09 14:25:53;;;;;;;2.90;2.47;;;;;;;;;;4969529;28;20679;-75
2023/01/09 14:28:26;;;;;;;2.10;1.73;;;;;;;;;;4965657;28;20230;-77
2023/01/09 14:30:53;;;;;;;2.80;1.60;;;;;;;;;;4964987;28;20335;-78
2023/01/09 14:33:24;;;;;;;1.60;1.50;;;;;;;;;;4980170;28;20262;-76
2023/01/09 14:35:54;;;;;;;2.53;1.50;;;;;;;;;;4977439;28;20385;-75
2023/01/09 14:38:28;;;;;;;4.70;4.10;;;;;;;;;;4970892;28;20216;-77
2023/01/09 14:41:15;;;;;;;4.40;3.70;;;;;;;;;;4981223;28;20212;-79
2023/01/09 14:43:52;;;;;;;1.53;1.30;;;;;;;;;;4938065;28;20297;-77
2023/01/09 14:46:20;;;;;;;1.77;1.47;;;;;;;;;;4977521;28;20222;-78
2023/01/09 14:49:26;;;;;;;1.93;1.30;;;;;;;;;;4975949;28;20227;-79
2023/01/09 14:51:55;;;;;;;1.60;1.23;;;;;;;;;;4924047;29;20293;-77
2023/01/09 14:54:36;;;;;;;2.17;1.40;;;;;;;;;;4944706;28;20215;-76
2023/01/09 14:57:22;;;;;;;1.80;1.30;;;;;;;;;;4992025;28;20205;-76
2023/01/09 15:00:06;;;;;;;1.30;1.30;;;;;;;;;;4971281;28;20737;-79
2023/01/09 15:02:35;;;;;;;1.57;1.10;;;;;;;;;;4974225;28;20204;-78
2023/01/09 15:05:08;;;;;;;0.97;0.97;;;;;;;;;;4977761;28;20237;-78
2023/01/09 15:07:55;;;;;;;1.33;1.30;;;;;;;;;;4980677;28;20220;-78
2023/01/09 15:10:24;;;;;;;1.20;1.20;;;;;;;;;;4984945;28;20282;-78
2023/01/09 15:12:53;;;;;;;1.93;1.10;;;;;;;;;;4994826;28;20252;-79
2023/01/09 15:15:21;;;;;;;1.10;1.10;;;;;;;;;;4988699;28;20220;-78
2023/01/09 15:17:54;;;;;;;1.30;1.20;;;;;;;;;;4992971;28;20204;-78
2023/01/09 15:20:27;;;;;;;1.80;1.40;;;;;;;;;;4984535;28;20211;-76
2023/01/09 15:22:55;;;;;;;1.30;1.20;;;;;;;;;;4987968;28;20235;-77
2023/01/09 15:25:27;;;;;;;2.00;1.33;;;;;;;;;;4982082;28;20235;-79